LIPR/RMI METAR and TAF weather

Enter ICAO airport designator
Station Type Date Time Source
LIPR METAR 2019/02/17 16:20 UTC NOAA

LIPR 171620Z 14003KT 5000 BR NSC 11/02 Q1026


Station Type Date Time Source
LIPR Decoded METAR 2019/02/17 16:20 UTC NOAA

Rimini, Italy (LIPR) 44-02N 012-37E 13M
Feb 17, 2019 - 11:20 AM EST / 2019.02.17 1620 UTC
Wind: from the SE (140 degrees) at 3 MPH (3 KT):0
Visibility: 3 mile(s):0
Weather: mist
Temperature: 51 F (11 C)
Dew Point: 35 F (2 C)
Relative Humidity: 53%
Pressure (altimeter): 30.30 in. Hg (1026 hPa)
ob: LIPR 171620Z 14003KT 5000 BR NSC 11/02 Q1026
cycle: 16

Station Type Date Time Source
LIPR TAF 2016/08/23 03:00 UTC NOAA

TAF LIPR 230200Z 2303/2312 04007KT CAVOK
BECMG 2308/2310 02010KT


Example: see airport list